sensor_id;sensor_type;location;lat;lon;timestamp;pressure;altitude;pressure_sealevel;temperature;humidity
72636;BME280;60679;48.888;15.544;2023-02-15T00:01:24;97738.75;;;0.44;75.33
72636;BME280;60679;48.888;15.544;2023-02-15T00:03:50;97733.94;;;0.38;75.00
72636;BME280;60679;48.888;15.544;2023-02-15T00:06:16;97732.63;;;0.33;75.43
72636;BME280;60679;48.888;15.544;2023-02-15T00:08:41;97727.06;;;0.36;75.42
72636;BME280;60679;48.888;15.544;2023-02-15T00:11:14;97726.06;;;0.37;75.22
72636;BME280;60679;48.888;15.544;2023-02-15T00:13:41;97725.97;;;0.38;75.30
72636;BME280;60679;48.888;15.544;2023-02-15T00:16:09;97730.44;;;0.38;75.33
72636;BME280;60679;48.888;15.544;2023-02-15T00:18:35;97728.41;;;0.30;75.21
72636;BME280;60679;48.888;15.544;2023-02-15T00:21:06;97729.25;;;0.31;75.31
72636;BME280;60679;48.888;15.544;2023-02-15T00:23:31;97725.00;;;0.28;75.18
72636;BME280;60679;48.888;15.544;2023-02-15T00:26:07;97719.97;;;0.25;75.32
72636;BME280;60679;48.888;15.544;2023-02-15T00:28:33;97722.63;;;0.25;75.43
72636;BME280;60679;48.888;15.544;2023-02-15T00:31:08;97721.78;;;0.25;75.49
72636;BME280;60679;48.888;15.544;2023-02-15T00:33:34;97716.94;;;0.30;75.50
72636;BME280;60679;48.888;15.544;2023-02-15T00:36:00;97717.66;;;0.32;75.32
72636;BME280;60679;48.888;15.544;2023-02-15T00:38:28;97723.81;;;0.32;75.28
72636;BME280;60679;48.888;15.544;2023-02-15T00:40:54;97722.25;;;0.30;75.26
72636;BME280;60679;48.888;15.544;2023-02-15T00:43:21;97711.88;;;0.27;75.43
72636;BME280;60679;48.888;15.544;2023-02-15T00:45:46;97707.75;;;0.23;75.16
72636;BME280;60679;48.888;15.544;2023-02-15T00:48:12;97708.84;;;0.20;75.38
72636;BME280;60679;48.888;15.544;2023-02-15T00:50:37;97713.06;;;0.23;75.45
72636;BME280;60679;48.888;15.544;2023-02-15T00:53:02;97706.09;;;0.22;75.38
72636;BME280;60679;48.888;15.544;2023-02-15T00:55:28;97712.25;;;0.22;75.41
72636;BME280;60679;48.888;15.544;2023-02-15T00:57:53;97706.09;;;0.22;75.40
72636;BME280;60679;48.888;15.544;2023-02-15T01:00:18;97712.38;;;0.21;75.39
72636;BME280;60679;48.888;15.544;2023-02-15T01:02:44;97711.41;;;0.22;75.38
72636;BME280;60679;48.888;15.544;2023-02-15T01:05:09;97706.22;;;0.20;75.37
72636;BME280;60679;48.888;15.544;2023-02-15T01:07:35;97703.69;;;0.19;75.36
72636;BME280;60679;48.888;15.544;2023-02-15T01:10:00;97706.44;;;0.17;75.40
72636;BME280;60679;48.888;15.544;2023-02-15T01:12:25;97700.56;;;0.14;75.47
72636;BME280;60679;48.888;15.544;2023-02-15T01:14:51;97707.69;;;0.13;75.52
72636;BME280;60679;48.888;15.544;2023-02-15T01:17:16;97698.72;;;0.14;74.90
72636;BME280;60679;48.888;15.544;2023-02-15T01:19:41;97704.03;;;0.14;75.51
72636;BME280;60679;48.888;15.544;2023-02-15T01:22:07;97702.13;;;0.16;75.56
72636;BME280;60679;48.888;15.544;2023-02-15T01:24:32;97696.81;;;0.16;75.29
72636;BME280;60679;48.888;15.544;2023-02-15T01:26:58;97704.03;;;0.14;75.36
72636;BME280;60679;48.888;15.544;2023-02-15T01:29:23;97697.31;;;0.10;75.18
72636;BME280;60679;48.888;15.544;2023-02-15T01:31:48;97691.28;;;0.08;75.43
72636;BME280;60679;48.888;15.544;2023-02-15T01:34:14;97691.41;;;0.07;75.27
72636;BME280;60679;48.888;15.544;2023-02-15T01:36:39;97678.75;;;-0.01;75.24
72636;BME280;60679;48.888;15.544;2023-02-15T01:39:07;97674.31;;;-0.12;75.60
72636;BME280;60679;48.888;15.544;2023-02-15T01:41:35;97674.41;;;-0.13;75.56
72636;BME280;60679;48.888;15.544;2023-02-15T01:44:02;97664.78;;;-0.14;75.58
72636;BME280;60679;48.888;15.544;2023-02-15T01:46:36;97662.72;;;-0.11;75.61
72636;BME280;60679;48.888;15.544;2023-02-15T01:49:10;97667.78;;;-0.08;75.49
72636;BME280;60679;48.888;15.544;2023-02-15T01:51:37;97669.22;;;-0.04;75.54
72636;BME280;60679;48.888;15.544;2023-02-15T01:54:20;97659.81;;;-0.08;75.34
72636;BME280;60679;48.888;15.544;2023-02-15T01:56:47;97661.75;;;-0.10;75.50
72636;BME280;60679;48.888;15.544;2023-02-15T01:59:17;97653.91;;;-0.11;75.36
72636;BME280;60679;48.888;15.544;2023-02-15T02:01:45;97655.00;;;-0.25;75.37
72636;BME280;60679;48.888;15.544;2023-02-15T02:04:25;97657.66;;;-0.25;75.56
72636;BME280;60679;48.888;15.544;2023-02-15T02:06:54;97646.09;;;-0.24;75.47
72636;BME280;60679;48.888;15.544;2023-02-15T02:09:19;97642.59;;;-0.24;75.51
72636;BME280;60679;48.888;15.544;2023-02-15T02:11:47;97635.34;;;-0.22;75.53
72636;BME280;60679;48.888;15.544;2023-02-15T02:14:14;97633.78;;;-0.25;75.36
72636;BME280;60679;48.888;15.544;2023-02-15T02:16:57;97637.53;;;-0.27;75.35
72636;BME280;60679;48.888;15.544;2023-02-15T02:36:28;97625.47;;;-0.20;75.51
72636;BME280;60679;48.888;15.544;2023-02-15T02:41:45;97623.16;;;-0.25;75.46
72636;BME280;60679;48.888;15.544;2023-02-15T02:44:42;97625.09;;;-0.27;75.40
72636;BME280;60679;48.888;15.544;2023-02-15T02:47:28;97624.25;;;-0.27;75.53
72636;BME280;60679;48.888;15.544;2023-02-15T02:50:00;97622.59;;;-0.28;75.51
72636;BME280;60679;48.888;15.544;2023-02-15T02:52:43;97619.44;;;-0.33;75.46
72636;BME280;60679;48.888;15.544;2023-02-15T02:55:13;97621.38;;;-0.35;75.83
72636;BME280;60679;48.888;15.544;2023-02-15T02:57:57;97618.88;;;-0.37;75.55
72636;BME280;60679;48.888;15.544;2023-02-15T03:00:29;97623.09;;;-0.34;75.56
72636;BME280;60679;48.888;15.544;2023-02-15T03:03:55;97609.81;;;-0.34;75.53
72636;BME280;60679;48.888;15.544;2023-02-15T03:05:57;97615.84;;;-0.32;75.54
72636;BME280;60679;48.888;15.544;2023-02-15T03:08:26;97609.06;;;-0.36;75.49
72636;BME280;60679;48.888;15.544;2023-02-15T03:10:57;97609.91;;;-0.36;75.59
72636;BME280;60679;48.888;15.544;2023-02-15T03:13:23;97614.97;;;-0.33;75.51
72636;BME280;60679;48.888;15.544;2023-02-15T03:15:50;97614.03;;;-0.32;75.54
72636;BME280;60679;48.888;15.544;2023-02-15T03:18:38;97614.88;;;-0.31;75.63
72636;BME280;60679;48.888;15.544;2023-02-15T03:21:07;97608.59;;;-0.30;75.52
72636;BME280;60679;48.888;15.544;2023-02-15T03:23:34;97607.72;;;-0.31;75.41
72636;BME280;60679;48.888;15.544;2023-02-15T03:26:05;97599.19;;;-0.34;75.33
72636;BME280;60679;48.888;15.544;2023-02-15T03:28:45;97608.25;;;-0.37;75.42
72636;BME280;60679;48.888;15.544;2023-02-15T03:31:14;97598.69;;;-0.39;75.46
72636;BME280;60679;48.888;15.544;2023-02-15T03:33:44;97595.34;;;-0.41;75.35
72636;BME280;60679;48.888;15.544;2023-02-15T03:39:30;97596.56;;;-0.45;75.43
72636;BME280;60679;48.888;15.544;2023-02-15T03:44:31;97593.81;;;-0.55;75.51
72636;BME280;60679;48.888;15.544;2023-02-15T03:47:06;97598.88;;;-0.63;75.58
72636;BME280;60679;48.888;15.544;2023-02-15T03:52:18;97598.03;;;-0.75;75.78
72636;BME280;60679;48.888;15.544;2023-02-15T03:54:45;97606.59;;;-0.71;75.79
72636;BME280;60679;48.888;15.544;2023-02-15T03:57:25;97600.22;;;-0.69;75.67
72636;BME280;60679;48.888;15.544;2023-02-15T04:00:19;97602.72;;;-0.67;75.64
72636;BME280;60679;48.888;15.544;2023-02-15T04:03:12;97605.63;;;-0.70;75.69
72636;BME280;60679;48.888;15.544;2023-02-15T04:05:44;97597.66;;;-0.70;75.70
72636;BME280;60679;48.888;15.544;2023-02-15T04:08:10;97595.00;;;-0.70;nan
72636;BME280;60679;48.888;15.544;2023-02-15T04:10:36;97598.66;;;-0.71;75.71
72636;BME280;60679;48.888;15.544;2023-02-15T04:13:29;97593.91;;;-0.68;75.66
72636;BME280;60679;48.888;15.544;2023-02-15T04:15:55;97595.50;;;-0.65;75.69
72636;BME280;60679;48.888;15.544;2023-02-15T04:18:37;97603.09;;;-0.72;75.45
72636;BME280;60679;48.888;15.544;2023-02-15T04:21:23;97596.34;;;-0.76;75.57
72636;BME280;60679;48.888;15.544;2023-02-15T04:24:08;97597.31;;;-0.77;75.63
72636;BME280;60679;48.888;15.544;2023-02-15T04:26:52;97592.59;;;-0.73;75.81
72636;BME280;60679;48.888;15.544;2023-02-15T04:29:19;97587.91;;;-0.70;75.65
72636;BME280;60679;48.888;15.544;2023-02-15T04:31:46;97592.97;;;-0.67;75.59
72636;BME280;60679;48.888;15.544;2023-02-15T04:34:11;97589.94;;;-0.62;75.75
72636;BME280;60679;48.888;15.544;2023-02-15T04:36:37;97584.63;;;-0.62;75.68
72636;BME280;60679;48.888;15.544;2023-02-15T04:39:03;97588.03;;;-0.60;75.78
72636;BME280;60679;48.888;15.544;2023-02-15T04:41:29;97584.63;;;-0.62;75.51
72636;BME280;60679;48.888;15.544;2023-02-15T04:43:54;97580.31;;;-0.63;75.68
72636;BME280;60679;48.888;15.544;2023-02-15T04:46:19;97574.28;;;-0.65;75.55
72636;BME280;60679;48.888;15.544;2023-02-15T04:48:45;97575.25;;;-0.66;75.59
72636;BME280;60679;48.888;15.544;2023-02-15T04:51:10;97576.94;;;-0.65;75.50
72636;BME280;60679;48.888;15.544;2023-02-15T04:53:36;97578.16;;;-0.69;75.64
72636;BME280;60679;48.888;15.544;2023-02-15T04:56:02;97574.03;;;-0.73;75.65
72636;BME280;60679;48.888;15.544;2023-02-15T04:58:27;97577.28;;;-0.70;75.69
72636;BME280;60679;48.888;15.544;2023-02-15T05:00:57;97574.53;;;-0.68;75.57
72636;BME280;60679;48.888;15.544;2023-02-15T05:03:23;97573.78;;;-0.70;75.57
72636;BME280;60679;48.888;15.544;2023-02-15T05:05:49;97575.50;;;-0.69;75.77
72636;BME280;60679;48.888;15.544;2023-02-15T05:08:14;97580.78;;;-0.69;75.61
72636;BME280;60679;48.888;15.544;2023-02-15T05:10:39;97580.78;;;-0.69;75.73
72636;BME280;60679;48.888;15.544;2023-02-15T05:13:05;97582.84;;;-0.73;75.54
72636;BME280;60679;48.888;15.544;2023-02-15T05:15:30;97585.63;;;-0.74;75.66
72636;BME280;60679;48.888;15.544;2023-02-15T05:17:56;97581.28;;;-0.75;75.55
72636;BME280;60679;48.888;15.544;2023-02-15T05:20:21;97590.94;;;-0.74;75.68
72636;BME280;60679;48.888;15.544;2023-02-15T05:22:46;97581.16;;;-0.74;75.64
72636;BME280;60679;48.888;15.544;2023-02-15T05:25:12;97583.94;;;-0.75;75.40
72636;BME280;60679;48.888;15.544;2023-02-15T05:27:56;97584.16;;;-0.78;75.65
72636;BME280;60679;48.888;15.544;2023-02-15T05:30:40;97582.84;;;-0.84;75.57
72636;BME280;60679;48.888;15.544;2023-02-15T05:33:07;97587.44;;;-0.86;75.47
72636;BME280;60679;48.888;15.544;2023-02-15T05:35:33;97586.72;;;-0.88;75.67
72636;BME280;60679;48.888;15.544;2023-02-15T05:38:03;97589.25;;;-0.86;75.74
72636;BME280;60679;48.888;15.544;2023-02-15T05:40:47;97593.59;;;-0.85;75.75
72636;BME280;60679;48.888;15.544;2023-02-15T05:43:16;97596.34;;;-0.87;75.70
72636;BME280;60679;48.888;15.544;2023-02-15T05:45:48;97590.09;;;-0.86;75.72
72636;BME280;60679;48.888;15.544;2023-02-15T05:48:15;97595.50;;;-0.87;75.64
72636;BME280;60679;48.888;15.544;2023-02-15T05:50:40;97585.97;;;-0.90;75.74
72636;BME280;60679;48.888;15.544;2023-02-15T05:53:09;97593.06;;;-0.90;75.59
72636;BME280;60679;48.888;15.544;2023-02-15T05:55:45;97594.78;;;-0.89;75.75
72636;BME280;60679;48.888;15.544;2023-02-15T05:58:10;97604.44;;;-0.88;75.64
72636;BME280;60679;48.888;15.544;2023-02-15T06:00:35;97601.88;;;-0.90;75.61
72636;BME280;60679;48.888;15.544;2023-02-15T06:03:01;97599.72;;;-0.96;75.54
72636;BME280;60679;48.888;15.544;2023-02-15T06:05:26;97607.41;;;-1.04;75.52
72636;BME280;60679;48.888;15.544;2023-02-15T06:07:52;97602.47;;;-1.08;75.69
72636;BME280;60679;48.888;15.544;2023-02-15T06:10:17;97606.09;;;-1.09;75.57
72636;BME280;60679;48.888;15.544;2023-02-15T06:12:44;97607.56;;;-1.05;75.60
72636;BME280;60679;48.888;15.544;2023-02-15T06:15:09;97601.41;;;-1.06;75.43
72636;BME280;60679;48.888;15.544;2023-02-15T06:17:34;97608.50;;;-1.06;75.59
72636;BME280;60679;48.888;15.544;2023-02-15T06:20:00;97616.69;;;-1.09;75.48
72636;BME280;60679;48.888;15.544;2023-02-15T06:22:25;97612.25;;;-1.09;75.54
72636;BME280;60679;48.888;15.544;2023-02-15T06:24:51;97612.94;;;-1.07;75.45
72636;BME280;60679;48.888;15.544;2023-02-15T06:27:16;97610.31;;;-1.07;75.49
72636;BME280;60679;48.888;15.544;2023-02-15T06:29:41;97615.50;;;-1.05;75.37
72636;BME280;60679;48.888;15.544;2023-02-15T06:32:07;97616.44;;;-1.06;75.69
72636;BME280;60679;48.888;15.544;2023-02-15T06:34:32;97619.81;;;-1.04;75.42
72636;BME280;60679;48.888;15.544;2023-02-15T06:36:58;97622.97;;;-0.99;75.49
72636;BME280;60679;48.888;15.544;2023-02-15T06:39:23;97624.31;;;-0.94;75.42
72636;BME280;60679;48.888;15.544;2023-02-15T06:41:49;97632.03;;;-0.91;75.32
72636;BME280;60679;48.888;15.544;2023-02-15T06:44:14;97632.59;;;-0.87;75.27
72636;BME280;60679;48.888;15.544;2023-02-15T06:46:40;97625.25;;;-0.84;75.34
72636;BME280;60679;48.888;15.544;2023-02-15T06:49:05;97626.81;;;-0.81;75.40
72636;BME280;60679;48.888;15.544;2023-02-15T06:51:30;97638.19;;;-0.79;75.28
72636;BME280;60679;48.888;15.544;2023-02-15T06:53:56;97632.88;;;-0.79;75.12
72636;BME280;60679;48.888;15.544;2023-02-15T06:56:21;97634.78;;;-0.81;74.87
72636;BME280;60679;48.888;15.544;2023-02-15T06:58:47;97629.63;;;-0.83;75.06
72636;BME280;60679;48.888;15.544;2023-02-15T07:01:15;97629.47;;;-0.81;74.93
72636;BME280;60679;48.888;15.544;2023-02-15T07:03:40;97629.25;;;-0.78;74.91
72636;BME280;60679;48.888;15.544;2023-02-15T07:06:06;97631.66;;;-0.75;74.90
72636;BME280;60679;48.888;15.544;2023-02-15T07:08:34;97626.25;;;-0.74;74.73
72636;BME280;60679;48.888;15.544;2023-02-15T07:10:59;97636.63;;;-0.71;74.66
72636;BME280;60679;48.888;15.544;2023-02-15T07:13:45;97629.38;;;-0.69;74.67
72636;BME280;60679;48.888;15.544;2023-02-15T07:16:11;97632.13;;;-0.70;74.62
72636;BME280;60679;48.888;15.544;2023-02-15T07:18:36;97629.38;;;-0.69;74.44
72636;BME280;60679;48.888;15.544;2023-02-15T07:21:02;97632.25;;;-0.83;74.62
72636;BME280;60679;48.888;15.544;2023-02-15T07:23:27;97627.19;;;-0.86;74.77
72636;BME280;60679;48.888;15.544;2023-02-15T07:25:57;97631.28;;;-0.93;74.75
72636;BME280;60679;48.888;15.544;2023-02-15T07:28:22;97626.13;;;-0.83;74.98
72636;BME280;60679;48.888;15.544;2023-02-15T07:30:48;97633.13;;;-0.71;74.84
72636;BME280;60679;48.888;15.544;2023-02-15T07:33:13;97630.47;;;-0.60;74.68
72636;BME280;60679;48.888;15.544;2023-02-15T07:36:00;97636.47;;;-0.47;74.46
72636;BME280;60679;48.888;15.544;2023-02-15T07:38:31;97624.19;;;-0.37;74.13
72636;BME280;60679;48.888;15.544;2023-02-15T07:41:00;97620.91;;;-0.29;74.30
72636;BME280;60679;48.888;15.544;2023-02-15T07:43:27;97618.94;;;-0.27;74.49
72636;BME280;60679;48.888;15.544;2023-02-15T07:45:52;97628.38;;;-0.23;74.10
72636;BME280;60679;48.888;15.544;2023-02-15T07:48:18;97624.63;;;-0.21;74.01
72636;BME280;60679;48.888;15.544;2023-02-15T07:50:43;97619.06;;;-0.18;74.05
72636;BME280;60679;48.888;15.544;2023-02-15T07:53:09;97611.56;;;-0.13;73.81
72636;BME280;60679;48.888;15.544;2023-02-15T07:55:34;97613.03;;;-0.09;73.76
72636;BME280;60679;48.888;15.544;2023-02-15T07:58:00;97610.09;;;-0.06;73.72
72636;BME280;60679;48.888;15.544;2023-02-15T08:00:25;97609.13;;;-0.05;73.67
72636;BME280;60679;48.888;15.544;2023-02-15T08:02:53;97601.16;;;-0.05;73.59
72636;BME280;60679;48.888;15.544;2023-02-15T08:05:41;97603.31;;;0.02;73.48
72636;BME280;60679;48.888;15.544;2023-02-15T08:08:08;97609.09;;;0.07;73.28
72636;BME280;60679;48.888;15.544;2023-02-15T08:11:06;97610.09;;;0.06;73.16
72636;BME280;60679;48.888;15.544;2023-02-15T08:14:04;97602.56;;;0.11;73.32
72636;BME280;60679;48.888;15.544;2023-02-15T08:16:37;97607.13;;;0.09;73.21
72636;BME280;60679;48.888;15.544;2023-02-15T08:21:34;97605.22;;;0.11;73.06
72636;BME280;60679;48.888;15.544;2023-02-15T08:24:00;97607.06;;;-0.01;72.72
72636;BME280;60679;48.888;15.544;2023-02-15T08:26:26;97605.59;;;0.06;73.09
72636;BME280;60679;48.888;15.544;2023-02-15T08:28:53;97603.47;;;0.21;72.99
72636;BME280;60679;48.888;15.544;2023-02-15T08:31:19;97598.63;;;0.26;72.75
72636;BME280;60679;48.888;15.544;2023-02-15T08:33:47;97599.81;;;0.33;72.81
72636;BME280;60679;48.888;15.544;2023-02-15T08:36:15;97597.63;;;0.38;72.32
72636;BME280;60679;48.888;15.544;2023-02-15T08:38:42;97595.75;;;0.49;72.67
72636;BME280;60679;48.888;15.544;2023-02-15T08:43:40;97586.75;;;0.62;72.40
72636;BME280;60679;48.888;15.544;2023-02-15T08:46:06;97585.66;;;0.64;72.34
72636;BME280;60679;48.888;15.544;2023-02-15T08:48:32;97582.06;;;0.75;72.20
72636;BME280;60679;48.888;15.544;2023-02-15T08:50:57;97583.94;;;0.84;72.14
72636;BME280;60679;48.888;15.544;2023-02-15T08:53:22;97576.56;;;0.87;71.72
72636;BME280;60679;48.888;15.544;2023-02-15T08:55:58;97584.41;;;0.89;71.79
72636;BME280;60679;48.888;15.544;2023-02-15T08:58:24;97581.66;;;1.00;71.84
72636;BME280;60679;48.888;15.544;2023-02-15T09:00:50;97588.16;;;1.16;71.30
72636;BME280;60679;48.888;15.544;2023-02-15T09:03:16;97587.19;;;1.17;71.28
72636;BME280;60679;48.888;15.544;2023-02-15T09:05:42;97586.69;;;1.24;71.27
72636;BME280;60679;48.888;15.544;2023-02-15T09:08:07;97591.59;;;1.28;71.21
72636;BME280;60679;48.888;15.544;2023-02-15T09:10:32;97602.66;;;1.33;71.42
72636;BME280;60679;48.888;15.544;2023-02-15T09:12:58;97596.06;;;1.28;71.11
72636;BME280;60679;48.888;15.544;2023-02-15T09:15:23;97590.88;;;1.26;71.19
72636;BME280;60679;48.888;15.544;2023-02-15T09:17:48;97587.69;;;1.32;71.16
72636;BME280;60679;48.888;15.544;2023-02-15T09:20:14;97581.38;;;1.33;70.97
72636;BME280;60679;48.888;15.544;2023-02-15T09:22:39;97582.53;;;1.40;70.75
72636;BME280;60679;48.888;15.544;2023-02-15T09:25:05;97586.47;;;1.46;70.68
72636;BME280;60679;48.888;15.544;2023-02-15T09:27:30;97585.22;;;1.50;70.54
72636;BME280;60679;48.888;15.544;2023-02-15T09:29:56;97588.75;;;1.60;70.80
72636;BME280;60679;48.888;15.544;2023-02-15T09:32:21;97591.31;;;1.71;70.55
72636;BME280;60679;48.888;15.544;2023-02-15T09:34:47;97585.28;;;1.79;70.13
72636;BME280;60679;48.888;15.544;2023-02-15T09:37:13;97586.84;;;1.81;70.37
72636;BME280;60679;48.888;15.544;2023-02-15T09:39:41;97584.19;;;1.81;70.19
72636;BME280;60679;48.888;15.544;2023-02-15T09:45:13;97577.34;;;1.88;70.22
72636;BME280;60679;48.888;15.544;2023-02-15T09:48:21;97577.63;;;1.85;69.96
72636;BME280;60679;48.888;15.544;2023-02-15T09:54:03;97573.72;;;2.18;70.02
72636;BME280;60679;48.888;15.544;2023-02-15T09:56:39;97572.75;;;2.19;69.69
72636;BME280;60679;48.888;15.544;2023-02-15T09:59:24;97576.13;;;2.30;69.59
72636;BME280;60679;48.888;15.544;2023-02-15T10:07:35;97579.06;;;2.56;68.63
72636;BME280;60679;48.888;15.544;2023-02-15T10:26:44;97559.63;;;3.57;67.61
72636;BME280;60679;48.888;15.544;2023-02-15T10:31:49;97551.94;;;3.98;66.70
72636;BME280;60679;48.888;15.544;2023-02-15T10:34:38;97551.78;;;4.00;66.72
72636;BME280;60679;48.888;15.544;2023-02-15T10:37:09;97550.94;;;3.99;66.91
72636;BME280;60679;48.888;15.544;2023-02-15T10:45:25;97539.13;;;4.37;66.44
72636;BME280;60679;48.888;15.544;2023-02-15T10:53:05;97523.97;;;4.89;65.40
72636;BME280;60679;48.888;15.544;2023-02-15T10:55:55;97521.63;;;5.20;64.82
72636;BME280;60679;48.888;15.544;2023-02-15T11:06:19;97514.44;;;6.04;63.42
72636;BME280;60679;48.888;15.544;2023-02-15T11:08:51;97503.69;;;6.04;63.34
72636;BME280;60679;48.888;15.544;2023-02-15T11:11:25;97505.91;;;6.33;63.04
72636;BME280;60679;48.888;15.544;2023-02-15T11:13:56;97501.38;;;6.58;62.75
72636;BME280;60679;48.888;15.544;2023-02-15T11:16:32;97493.34;;;6.74;62.14
72636;BME280;60679;48.888;15.544;2023-02-15T11:19:19;97492.75;;;7.19;61.81
72636;BME280;60679;48.888;15.544;2023-02-15T11:21:49;97486.03;;;7.92;60.70
72636;BME280;60679;48.888;15.544;2023-02-15T11:24:18;97489.69;;;8.22;60.05
72636;BME280;60679;48.888;15.544;2023-02-15T11:27:00;97481.16;;;8.64;59.67
72636;BME280;60679;48.888;15.544;2023-02-15T11:29:37;97476.50;;;8.95;59.16
72636;BME280;60679;48.888;15.544;2023-02-15T11:32:19;97483.47;;;9.63;58.38
72636;BME280;60679;48.888;15.544;2023-02-15T11:42:57;97463.44;;;11.54;55.03
72636;BME280;60679;48.888;15.544;2023-02-15T11:47:51;97451.06;;;17.54;47.29
72636;BME280;60679;48.888;15.544;2023-02-15T11:50:22;97446.41;;;18.46;47.09
72636;BME280;60679;48.888;15.544;2023-02-15T11:52:53;97438.03;;;19.42;46.17
72636;BME280;60679;48.888;15.544;2023-02-15T11:55:21;97431.47;;;21.69;41.52
72636;BME280;60679;48.888;15.544;2023-02-15T11:57:56;97433.16;;;22.27;40.41
72636;BME280;60679;48.888;15.544;2023-02-15T12:02:57;97426.69;;;25.17;39.26
72636;BME280;60679;48.888;15.544;2023-02-15T12:05:24;97422.44;;;26.16;38.63
72636;BME280;60679;48.888;15.544;2023-02-15T12:08:01;97426.41;;;26.95;38.43
72636;BME280;60679;48.888;15.544;2023-02-15T12:10:34;97424.66;;;27.69;37.69
72636;BME280;60679;48.888;15.544;2023-02-15T12:13:15;97403.44;;;28.05;37.32
72636;BME280;60679;48.888;15.544;2023-02-15T12:15:44;97399.72;;;28.64;36.82
72636;BME280;60679;48.888;15.544;2023-02-15T12:18:38;97385.91;;;28.73;36.00
72636;BME280;60679;48.888;15.544;2023-02-15T12:21:14;97384.88;;;29.04;36.40
72636;BME280;60679;48.888;15.544;2023-02-15T12:26:09;97384.38;;;29.69;35.97
72636;BME280;60679;48.888;15.544;2023-02-15T12:28:36;97376.34;;;29.98;35.42
72636;BME280;60679;48.888;15.544;2023-02-15T12:31:10;97375.00;;;30.35;35.45
72636;BME280;60679;48.888;15.544;2023-02-15T12:33:48;97369.44;;;31.09;35.02
72636;BME280;60679;48.888;15.544;2023-02-15T12:36:20;97364.50;;;31.49;34.80
72636;BME280;60679;48.888;15.544;2023-02-15T12:41:36;97355.31;;;32.03;34.48
72636;BME280;60679;48.888;15.544;2023-02-15T12:44:19;97359.06;;;31.98;34.02
72636;BME280;60679;48.888;15.544;2023-02-15T12:47:01;97345.09;;;32.07;33.91
72636;BME280;60679;48.888;15.544;2023-02-15T12:49:29;97338.78;;;32.48;34.17
72636;BME280;60679;48.888;15.544;2023-02-15T12:51:56;97340.94;;;32.72;33.47
72636;BME280;60679;48.888;15.544;2023-02-15T12:56:58;97347.97;;;33.40;32.89
72636;BME280;60679;48.888;15.544;2023-02-15T12:59:24;97340.28;;;33.70;33.12
72636;BME280;60679;48.888;15.544;2023-02-15T13:01:52;97343.31;;;33.77;32.85
72636;BME280;60679;48.888;15.544;2023-02-15T13:04:27;97339.78;;;33.67;32.07
72636;BME280;60679;48.888;15.544;2023-02-15T13:07:00;97334.78;;;33.73;31.93
72636;BME280;60679;48.888;15.544;2023-02-15T13:09:38;97330.63;;;33.91;32.46
72636;BME280;60679;48.888;15.544;2023-02-15T13:12:15;97321.88;;;34.05;32.48
72636;BME280;60679;48.888;15.544;2023-02-15T13:14:47;97317.69;;;34.11;31.47
72636;BME280;60679;48.888;15.544;2023-02-15T13:17:16;97315.72;;;34.11;31.41
72636;BME280;60679;48.888;15.544;2023-02-15T13:19:48;97323.19;;;34.32;31.70
72636;BME280;60679;48.888;15.544;2023-02-15T13:22:20;97317.53;;;34.56;31.38
72636;BME280;60679;48.888;15.544;2023-02-15T13:24:50;97320.50;;;34.71;31.50
72636;BME280;60679;48.888;15.544;2023-02-15T13:27:22;97315.78;;;34.75;30.89
72636;BME280;60679;48.888;15.544;2023-02-15T13:29:53;97311.41;;;34.90;30.84
72636;BME280;60679;48.888;15.544;2023-02-15T13:32:38;97308.28;;;34.79;30.68
72636;BME280;60679;48.888;15.544;2023-02-15T13:35:14;97314.22;;;34.90;30.49
72636;BME280;60679;48.888;15.544;2023-02-15T13:37:52;97305.19;;;34.97;30.88
72636;BME280;60679;48.888;15.544;2023-02-15T13:40:25;97302.31;;;34.81;29.99
72636;BME280;60679;48.888;15.544;2023-02-15T13:42:59;97300.38;;;34.97;29.85
72636;BME280;60679;48.888;15.544;2023-02-15T13:45:36;97299.03;;;34.79;30.17
72636;BME280;60679;48.888;15.544;2023-02-15T13:56:19;97286.94;;;34.39;30.34
72636;BME280;60679;48.888;15.544;2023-02-15T14:11:54;97275.53;;;33.50;31.70
72636;BME280;60679;48.888;15.544;2023-02-15T14:17:18;97262.34;;;32.65;32.66
72636;BME280;60679;48.888;15.544;2023-02-15T14:20:08;97274.09;;;27.44;39.06
72636;BME280;60679;48.888;15.544;2023-02-15T14:25:55;97269.25;;;19.03;50.25
72636;BME280;60679;48.888;15.544;2023-02-15T14:31:12;97269.34;;;15.41;54.52
72636;BME280;60679;48.888;15.544;2023-02-15T14:33:41;97273.16;;;14.43;55.69
72636;BME280;60679;48.888;15.544;2023-02-15T14:36:12;97281.22;;;13.69;56.43
72636;BME280;60679;48.888;15.544;2023-02-15T14:41:21;97279.53;;;12.59;57.68
72636;BME280;60679;48.888;15.544;2023-02-15T14:49:26;97285.06;;;11.33;58.63
72636;BME280;60679;48.888;15.544;2023-02-15T14:51:56;97289.50;;;11.00;59.19
72636;BME280;60679;48.888;15.544;2023-02-15T14:59:36;97286.28;;;10.15;59.71
72636;BME280;60679;48.888;15.544;2023-02-15T15:04:39;97286.94;;;9.74;59.99
72636;BME280;60679;48.888;15.544;2023-02-15T15:07:22;97275.50;;;9.72;60.05
72636;BME280;60679;48.888;15.544;2023-02-15T15:12:49;97289.25;;;9.20;60.04
72636;BME280;60679;48.888;15.544;2023-02-15T15:18:08;97285.81;;;8.76;60.47
72636;BME280;60679;48.888;15.544;2023-02-15T15:23:45;97279.25;;;9.14;59.46
72636;BME280;60679;48.888;15.544;2023-02-15T15:26:22;97271.16;;;8.64;60.14
72636;BME280;60679;48.888;15.544;2023-02-15T15:31:41;97276.75;;;8.10;60.63
72636;BME280;60679;48.888;15.544;2023-02-15T15:34:45;97276.63;;;8.41;59.72
72636;BME280;60679;48.888;15.544;2023-02-15T15:40:35;97280.44;;;8.61;59.33
72636;BME280;60679;48.888;15.544;2023-02-15T15:46:15;97264.06;;;9.49;57.96
72636;BME280;60679;48.888;15.544;2023-02-15T15:48:42;97264.84;;;8.86;58.64
72636;BME280;60679;48.888;15.544;2023-02-15T15:51:29;97269.06;;;8.95;58.11
72636;BME280;60679;48.888;15.544;2023-02-15T15:53:55;97267.16;;;9.46;57.40
72636;BME280;60679;48.888;15.544;2023-02-15T15:56:30;97265.06;;;9.42;57.28
72636;BME280;60679;48.888;15.544;2023-02-15T15:59:02;97266.09;;;7.65;59.95